createdAt,value
2022-08-04T00:02:15.691Z,3.00
2022-08-04T00:04:48.327Z,2.95
2022-08-04T00:07:44.212Z,2.70
2022-08-04T00:10:11.191Z,2.92
2022-08-04T00:12:43.394Z,2.78
2022-08-04T00:15:15.577Z,2.88
2022-08-04T00:17:54.178Z,2.70
2022-08-04T00:20:21.473Z,2.60
2022-08-04T00:22:48.866Z,2.70
2022-08-04T00:25:16.428Z,3.00
2022-08-04T00:27:43.601Z,2.70
2022-08-04T00:30:10.375Z,2.85
2022-08-04T00:32:43.702Z,2.53
2022-08-04T00:35:14.076Z,2.30
2022-08-04T00:37:43.848Z,2.42
2022-08-04T00:40:18.638Z,2.47
2022-08-04T00:42:59.202Z,2.90
2022-08-04T00:45:35.694Z,3.05
2022-08-04T00:48:48.915Z,2.83
2022-08-04T00:52:31.806Z,2.70
2022-08-04T00:55:06.964Z,3.35
2022-08-04T00:58:00.325Z,2.90
2022-08-04T01:00:28.227Z,3.00
2022-08-04T01:03:32.340Z,2.70
2022-08-04T01:06:34.536Z,2.90
2022-08-04T01:09:21.553Z,3.03
2022-08-04T01:12:08.107Z,2.67
2022-08-04T01:14:59.624Z,2.75
2022-08-04T01:18:04.018Z,2.42
2022-08-04T01:20:54.129Z,2.65
2022-08-04T01:23:59.000Z,2.70
2022-08-04T01:26:43.700Z,2.70
2022-08-04T01:29:16.258Z,3.10
2022-08-04T01:31:48.786Z,2.75
2022-08-04T01:34:16.512Z,2.63
2022-08-04T01:37:10.588Z,2.80
2022-08-04T01:39:44.629Z,2.80
2022-08-04T01:42:12.647Z,2.65
2022-08-04T01:44:51.276Z,2.60
2022-08-04T01:47:21.384Z,2.53
2022-08-04T01:49:50.290Z,2.90
2022-08-04T01:52:18.516Z,2.50
2022-08-04T01:54:46.874Z,2.88
2022-08-04T01:57:37.978Z,2.95
2022-08-04T02:00:05.871Z,2.47
2022-08-04T02:02:33.686Z,2.97
2022-08-04T02:05:00.176Z,2.97
2022-08-04T02:07:51.366Z,3.15
2022-08-04T02:10:42.760Z,3.25
2022-08-04T02:13:15.276Z,2.95
2022-08-04T02:16:05.107Z,3.10
2022-08-04T02:18:44.514Z,3.20
2022-08-04T02:21:15.856Z,2.80
2022-08-04T02:23:45.937Z,3.15
2022-08-04T02:26:22.165Z,3.00
2022-08-04T02:29:03.677Z,3.28
2022-08-04T02:31:44.259Z,3.20
2022-08-04T02:34:28.010Z,3.10
2022-08-04T02:36:55.694Z,3.03
2022-08-04T02:39:23.607Z,2.92
2022-08-04T02:41:52.959Z,2.70
2022-08-04T02:44:23.683Z,2.95
2022-08-04T02:46:53.014Z,3.00
2022-08-04T02:49:22.251Z,3.20
2022-08-04T02:51:54.683Z,2.80
2022-08-04T02:54:41.035Z,2.88
2022-08-04T02:57:11.360Z,3.20
2022-08-04T02:59:57.101Z,3.00
2022-08-04T03:02:34.692Z,2.88
2022-08-04T03:05:07.357Z,3.00
2022-08-04T03:08:21.979Z,3.08
2022-08-04T03:11:20.212Z,3.00
2022-08-04T03:13:53.560Z,2.83
2022-08-04T03:16:33.453Z,2.88
2022-08-04T03:19:04.932Z,2.72
2022-08-04T03:22:08.339Z,2.90
2022-08-04T03:25:00.023Z,2.80
2022-08-04T03:28:06.083Z,2.80
2022-08-04T03:30:59.456Z,3.00
2022-08-04T03:33:46.172Z,3.13
2022-08-04T03:36:15.688Z,3.10
2022-08-04T03:39:20.622Z,3.40
2022-08-04T03:42:08.055Z,3.20
2022-08-04T03:44:53.677Z,3.20
2022-08-04T03:47:53.543Z,3.13
2022-08-04T03:50:25.764Z,3.08
2022-08-04T03:53:08.887Z,3.13
2022-08-04T03:55:46.572Z,3.25
2022-08-04T03:58:46.744Z,3.53
2022-08-04T04:01:19.272Z,3.05
2022-08-04T04:04:14.406Z,3.40
2022-08-04T04:06:55.669Z,3.25
2022-08-04T04:09:57.016Z,2.92
2022-08-04T04:12:42.121Z,3.50
2022-08-04T04:15:39.573Z,3.42
2022-08-04T04:18:42.418Z,3.33
2022-08-04T04:21:18.153Z,3.50
2022-08-04T04:23:56.737Z,2.95
2022-08-04T04:26:46.750Z,2.92
2022-08-04T04:29:37.453Z,3.40
2022-08-04T04:32:34.507Z,3.05
2022-08-04T04:35:26.882Z,3.28
2022-08-04T04:38:30.577Z,3.25
2022-08-04T04:41:12.496Z,3.50
2022-08-04T04:43:56.828Z,3.58
2022-08-04T04:46:54.466Z,3.38
2022-08-04T04:49:34.897Z,3.45
2022-08-04T04:52:13.245Z,3.70
2022-08-04T04:54:45.672Z,3.10
2022-08-04T04:57:20.219Z,3.90
2022-08-04T05:00:10.329Z,3.50
2022-08-04T05:02:43.493Z,3.60
2022-08-04T05:05:15.555Z,3.53
2022-08-04T05:07:58.473Z,3.70
2022-08-04T05:10:46.693Z,3.92
2022-08-04T05:14:34.683Z,3.85
2022-08-04T05:16:30.982Z,4.57
2022-08-04T05:19:16.087Z,4.20
2022-08-04T05:21:48.143Z,4.07
2022-08-04T05:24:19.237Z,4.10
2022-08-04T05:26:50.191Z,4.20
2022-08-04T05:29:31.774Z,4.75
2022-08-04T05:32:01.787Z,4.65
2022-08-04T05:34:31.819Z,4.68
2022-08-04T05:37:01.719Z,4.32
2022-08-04T05:39:38.929Z,4.95
2022-08-04T05:42:06.556Z,4.10
2022-08-04T05:44:34.891Z,4.55
2022-08-04T05:47:04.248Z,4.18
2022-08-04T05:49:32.748Z,3.70
2022-08-04T05:52:01.854Z,3.63
2022-08-04T05:54:31.385Z,3.33
2022-08-04T05:56:59.046Z,4.13
2022-08-04T05:59:26.746Z,3.35
2022-08-04T06:01:57.095Z,3.67
2022-08-04T06:04:30.828Z,4.13
2022-08-04T06:06:57.477Z,3.63
2022-08-04T06:09:24.267Z,3.83
2022-08-04T06:12:03.071Z,4.03
2022-08-04T06:14:59.720Z,3.75
2022-08-04T06:19:57.671Z,3.88
2022-08-04T06:20:22.826Z,3.60
2022-08-04T06:22:54.528Z,3.45
2022-08-04T06:25:25.252Z,3.58
2022-08-04T06:27:53.388Z,3.63
2022-08-04T06:30:20.947Z,3.80
2022-08-04T06:33:03.394Z,3.30
2022-08-04T06:35:35.523Z,3.13
2022-08-04T06:38:11.589Z,3.88
2022-08-04T06:40:40.683Z,3.22
2022-08-04T06:43:08.486Z,3.28
2022-08-04T06:45:39.834Z,3.67
2022-08-04T06:48:09.107Z,3.20
2022-08-04T06:51:25.591Z,3.40
2022-08-04T06:53:35.954Z,3.15
2022-08-04T06:56:03.015Z,3.17
2022-08-04T06:58:32.090Z,2.85
2022-08-04T07:01:02.735Z,3.22
2022-08-04T07:03:31.026Z,3.00
2022-08-04T07:05:58.040Z,3.13
2022-08-04T07:08:27.237Z,3.40
2022-08-04T07:10:54.845Z,2.97
2022-08-04T07:13:27.848Z,3.22
2022-08-04T07:15:55.940Z,3.30
2022-08-04T07:18:22.527Z,3.00
2022-08-04T07:20:49.519Z,2.50
2022-08-04T07:23:21.624Z,2.88
2022-08-04T07:26:00.496Z,3.05
2022-08-04T07:28:46.506Z,3.05
2022-08-04T07:31:33.563Z,2.78
2022-08-04T07:34:20.626Z,3.10
2022-08-04T07:39:27.270Z,2.70
2022-08-04T07:41:55.942Z,2.95
2022-08-04T07:44:22.414Z,2.90
2022-08-04T07:46:48.955Z,2.72
2022-08-04T07:49:54.351Z,2.95
2022-08-04T07:54:29.311Z,2.85
2022-08-04T07:56:57.486Z,2.53
2022-08-04T07:59:24.777Z,2.85
2022-08-04T08:01:52.013Z,2.17
2022-08-04T08:04:18.948Z,2.50
2022-08-04T08:06:45.639Z,2.90
2022-08-04T08:09:18.785Z,2.58
2022-08-04T08:12:37.065Z,2.65
2022-08-04T08:14:36.344Z,2.67
2022-08-04T08:17:03.653Z,2.50
2022-08-04T08:19:34.759Z,2.88
2022-08-04T08:22:02.198Z,2.60
2022-08-04T08:24:31.077Z,2.70
2022-08-04T08:26:58.865Z,2.63
2022-08-04T08:29:26.258Z,3.00
2022-08-04T08:31:56.454Z,2.90
2022-08-04T08:34:28.803Z,2.75
2022-08-04T08:37:04.760Z,2.63
2022-08-04T08:39:59.588Z,2.67
2022-08-04T08:42:34.758Z,2.05
2022-08-04T08:45:12.275Z,2.22
2022-08-04T08:48:11.007Z,2.80
2022-08-04T08:50:53.255Z,2.22
2022-08-04T08:53:38.386Z,2.30
2022-08-04T08:56:31.173Z,2.28
2022-08-04T08:59:01.005Z,2.28
2022-08-04T09:01:48.981Z,2.40
2022-08-04T09:04:38.083Z,2.20
2022-08-04T09:07:15.639Z,2.30
2022-08-04T09:10:09.877Z,2.60
2022-08-04T09:12:39.300Z,2.25
2022-08-04T09:15:13.855Z,2.38
2022-08-04T09:17:50.051Z,2.30
2022-08-04T09:23:06.946Z,2.47
2022-08-04T09:25:56.708Z,2.40
2022-08-04T09:28:52.877Z,2.22
2022-08-04T09:31:20.892Z,2.20
2022-08-04T09:34:04.460Z,2.22
2022-08-04T09:36:45.425Z,2.38
2022-08-04T09:39:24.562Z,2.35
2022-08-04T09:42:04.048Z,2.20
2022-08-04T09:44:55.286Z,2.60
2022-08-04T09:47:40.123Z,2.50
2022-08-04T09:50:32.114Z,2.58
2022-08-04T09:53:13.746Z,2.60
2022-08-04T09:56:18.932Z,2.33
2022-08-04T09:59:01.507Z,2.42
2022-08-04T10:01:30.480Z,1.92
2022-08-04T10:04:01.730Z,2.22
2022-08-04T10:06:59.961Z,2.17
2022-08-04T10:09:47.713Z,2.38
2022-08-04T10:12:26.440Z,2.30
2022-08-04T10:15:03.489Z,2.00
2022-08-04T10:18:04.331Z,2.13
2022-08-04T10:21:10.180Z,2.10
2022-08-04T10:24:21.853Z,2.40
2022-08-04T10:26:58.112Z,1.83
2022-08-04T10:29:31.055Z,2.30
2022-08-04T10:32:21.444Z,1.90
2022-08-04T10:35:14.075Z,2.20
2022-08-04T10:38:01.497Z,2.15
2022-08-04T10:40:49.229Z,2.50
2022-08-04T10:43:42.848Z,2.53
2022-08-04T10:46:30.149Z,2.10
2022-08-04T10:49:00.048Z,2.15
2022-08-04T10:51:58.513Z,2.20
2022-08-04T10:54:47.422Z,2.38
2022-08-04T10:57:27.116Z,2.30
2022-08-04T10:59:59.080Z,2.28
2022-08-04T11:02:58.478Z,1.92
2022-08-04T11:05:29.228Z,1.90
2022-08-04T11:08:11.493Z,1.60
2022-08-04T11:11:05.862Z,1.85
2022-08-04T11:13:45.039Z,2.10
2022-08-04T11:16:19.578Z,2.00
2022-08-04T11:19:04.397Z,1.90
2022-08-04T11:21:39.695Z,1.80
2022-08-04T11:24:22.765Z,1.77
2022-08-04T11:27:07.038Z,1.70
2022-08-04T11:29:45.689Z,1.77
2022-08-04T11:32:31.161Z,1.63
2022-08-04T11:35:04.073Z,1.83
2022-08-04T11:37:46.831Z,1.67
2022-08-04T11:40:32.897Z,1.80
2022-08-04T11:43:08.477Z,1.55
2022-08-04T11:45:40.811Z,1.58
2022-08-04T11:48:13.197Z,1.38
2022-08-04T11:50:53.971Z,1.30
2022-08-04T11:53:39.890Z,1.40
2022-08-04T11:56:12.658Z,1.27
2022-08-04T11:58:50.225Z,1.33
2022-08-04T12:01:31.477Z,1.52
2022-08-04T12:04:35.538Z,1.20
2022-08-04T12:07:53.265Z,1.13
2022-08-04T12:10:45.512Z,1.67
2022-08-04T12:13:28.015Z,1.35
2022-08-04T12:16:12.654Z,1.55
2022-08-04T12:19:16.782Z,1.38
2022-08-04T12:21:53.438Z,1.60
2022-08-04T12:24:31.091Z,1.60
2022-08-04T12:27:04.673Z,1.20
2022-08-04T12:30:56.345Z,1.30
2022-08-04T12:32:53.607Z,1.13
2022-08-04T12:35:58.153Z,1.02
2022-08-04T12:38:34.635Z,1.00
2022-08-04T12:41:04.951Z,0.90
2022-08-04T12:43:47.016Z,0.80
2022-08-04T12:46:22.159Z,0.85
2022-08-04T12:48:51.354Z,1.17
2022-08-04T12:52:06.555Z,0.80
2022-08-04T12:54:08.643Z,1.10
2022-08-04T12:56:35.769Z,1.38
2022-08-04T12:59:12.622Z,0.77
2022-08-04T13:02:07.338Z,0.80
2022-08-04T13:04:42.555Z,1.10
2022-08-04T13:07:19.472Z,1.30
2022-08-04T13:09:47.127Z,1.00
2022-08-04T13:12:16.773Z,0.88
2022-08-04T13:14:44.802Z,1.10
2022-08-04T13:17:12.599Z,1.30
2022-08-04T13:19:45.124Z,1.38
2022-08-04T13:22:16.225Z,1.13
2022-08-04T13:24:56.534Z,1.05
2022-08-04T13:27:43.293Z,1.10
2022-08-04T13:30:31.268Z,1.23
2022-08-04T13:33:00.952Z,0.93
2022-08-04T13:35:54.758Z,1.00
2022-08-04T13:38:25.562Z,1.02
2022-08-04T13:40:52.640Z,1.00
2022-08-04T13:44:16.266Z,1.02
2022-08-04T13:46:33.964Z,1.08
2022-08-04T13:52:10.910Z,1.10
2022-08-04T13:54:45.834Z,1.10
2022-08-04T13:57:31.207Z,1.15
2022-08-04T14:00:02.793Z,1.17
2022-08-04T14:02:47.829Z,1.30
2022-08-04T14:05:33.914Z,0.88
2022-08-04T14:08:05.998Z,1.02
2022-08-04T14:10:33.722Z,0.90
2022-08-04T14:13:03.346Z,1.08
2022-08-04T14:16:01.939Z,1.05
2022-08-04T14:18:26.549Z,1.35
2022-08-04T14:21:00.133Z,1.17
2022-08-04T14:23:31.796Z,1.13
2022-08-04T14:25:59.914Z,1.20
2022-08-04T14:28:47.014Z,1.10
2022-08-04T14:31:21.917Z,1.25
2022-08-04T14:34:01.063Z,1.20
2022-08-04T14:37:13.328Z,1.13
2022-08-04T14:40:19.329Z,1.17
2022-08-04T14:42:55.451Z,1.10
2022-08-04T14:45:54.042Z,1.70
2022-08-04T14:48:21.907Z,1.30
2022-08-04T14:50:49.497Z,1.63
2022-08-04T14:53:17.739Z,1.52
2022-08-04T14:55:49.600Z,1.40
2022-08-04T14:58:34.215Z,1.08
2022-08-04T15:01:11.015Z,1.23
2022-08-04T15:03:50.697Z,1.40
2022-08-04T15:06:26.219Z,1.30
2022-08-04T15:08:54.931Z,1.33
2022-08-04T15:11:23.920Z,1.30
2022-08-04T15:13:55.105Z,1.00
2022-08-04T15:16:22.944Z,1.30
2022-08-04T15:19:00.884Z,1.30
2022-08-04T15:21:28.989Z,1.13
2022-08-04T15:23:59.226Z,1.17
2022-08-04T15:26:32.105Z,1.10
2022-08-04T15:29:25.055Z,1.20
2022-08-04T15:32:04.376Z,0.90
2022-08-04T15:35:02.507Z,1.10
2022-08-04T15:37:37.059Z,0.90
2022-08-04T15:40:14.854Z,0.82
2022-08-04T15:42:49.615Z,0.82
2022-08-04T15:46:02.936Z,1.00
2022-08-04T15:48:13.628Z,1.70
2022-08-04T15:50:55.305Z,1.40
2022-08-04T15:53:23.002Z,1.30
2022-08-04T15:55:49.817Z,0.98
2022-08-04T15:58:20.359Z,0.80
2022-08-04T16:00:49.838Z,0.70
2022-08-04T16:03:59.214Z,0.63
2022-08-04T16:06:20.874Z,0.80
2022-08-04T16:08:57.954Z,0.90
2022-08-04T16:11:30.919Z,0.82
2022-08-04T16:14:01.613Z,0.82
2022-08-04T16:16:32.933Z,0.80
2022-08-04T16:19:10.053Z,0.80
2022-08-04T16:21:50.610Z,0.70
2022-08-04T16:24:36.299Z,0.80
2022-08-04T16:27:04.833Z,0.95
2022-08-04T16:29:40.681Z,1.10
2022-08-04T16:34:59.928Z,1.10
2022-08-04T16:37:35.553Z,1.05
2022-08-04T16:40:37.631Z,1.00
2022-08-04T16:43:11.339Z,1.10
2022-08-04T16:46:03.951Z,1.23
2022-08-04T16:48:35.617Z,1.10
2022-08-04T16:51:07.959Z,1.00
2022-08-04T16:53:53.038Z,1.00
2022-08-04T16:56:29.869Z,0.95
2022-08-04T16:58:56.697Z,0.98
2022-08-04T17:01:33.770Z,0.90
2022-08-04T17:04:05.247Z,1.02
2022-08-04T17:06:37.020Z,0.95
2022-08-04T17:09:12.145Z,1.00
2022-08-04T17:11:38.726Z,1.00
2022-08-04T17:14:06.438Z,1.30
2022-08-04T17:16:36.203Z,1.10
2022-08-04T17:19:03.669Z,0.90
2022-08-04T17:21:32.450Z,1.00
2022-08-04T17:24:14.185Z,1.45
2022-08-04T17:26:54.269Z,1.58
2022-08-04T17:29:44.956Z,1.20
2022-08-04T17:32:20.761Z,1.50
2022-08-04T17:35:02.069Z,1.67
2022-08-04T17:37:39.249Z,1.50
2022-08-04T17:40:13.360Z,1.60
2022-08-04T17:42:41.514Z,1.45
2022-08-04T17:48:00.287Z,1.20
2022-08-04T17:50:31.262Z,1.30
2022-08-04T17:53:02.229Z,1.20
2022-08-04T17:55:44.635Z,1.40
2022-08-04T17:58:22.321Z,1.40
2022-08-04T18:03:51.515Z,1.25
2022-08-04T18:06:20.487Z,1.42
2022-08-04T18:08:54.775Z,1.50
2022-08-04T18:11:25.022Z,1.48
2022-08-04T18:13:57.104Z,1.60
2022-08-04T18:16:24.138Z,1.60
2022-08-04T18:19:11.067Z,1.60
2022-08-04T18:21:45.487Z,1.75
2022-08-04T18:24:28.513Z,2.08
2022-08-04T18:27:01.413Z,1.70
2022-08-04T18:29:31.941Z,1.85
2022-08-04T18:31:58.598Z,1.88
2022-08-04T18:34:54.422Z,1.95
2022-08-04T18:38:03.156Z,1.80
2022-08-04T18:42:52.697Z,2.03
2022-08-04T18:45:19.905Z,2.10
2022-08-04T18:47:58.290Z,2.35
2022-08-04T18:50:59.425Z,2.10
2022-08-04T18:53:13.057Z,2.17
2022-08-04T18:55:56.756Z,2.30
2022-08-04T18:58:27.158Z,2.17
2022-08-04T19:00:55.669Z,2.60
2022-08-04T19:03:23.068Z,2.22
2022-08-04T19:05:50.383Z,2.22
2022-08-04T19:08:34.523Z,2.30
2022-08-04T19:11:37.258Z,2.28
2022-08-04T19:14:04.733Z,2.30
2022-08-04T19:16:32.608Z,2.20
2022-08-04T19:19:03.325Z,2.20
2022-08-04T19:22:00.317Z,2.22
2022-08-04T19:24:31.106Z,2.17
2022-08-04T19:27:02.294Z,2.58
2022-08-04T19:29:37.968Z,2.25
2022-08-04T19:32:15.027Z,2.75
2022-08-04T19:34:46.482Z,2.17
2022-08-04T19:37:58.392Z,2.55
2022-08-04T19:40:09.470Z,2.60
2022-08-04T19:42:36.896Z,2.50
2022-08-04T19:45:05.052Z,2.50
2022-08-04T19:48:16.953Z,2.90
2022-08-04T19:50:18.226Z,2.47
2022-08-04T19:52:51.790Z,2.60
2022-08-04T19:55:22.305Z,2.33
2022-08-04T19:57:49.699Z,2.45
2022-08-04T20:00:17.877Z,2.47
2022-08-04T20:03:00.161Z,2.30
2022-08-04T20:05:52.459Z,2.60
2022-08-04T20:08:13.722Z,2.50
2022-08-04T20:10:51.325Z,2.35
2022-08-04T20:13:19.825Z,2.55
2022-08-04T20:18:54.735Z,2.42
2022-08-04T20:21:53.671Z,2.63
2022-08-04T20:24:38.909Z,2.10
2022-08-04T20:27:11.590Z,2.83
2022-08-04T20:29:48.472Z,2.72
2022-08-04T20:32:19.478Z,2.90
2022-08-04T20:34:47.230Z,2.60
2022-08-04T20:37:15.443Z,3.03
2022-08-04T20:39:42.196Z,2.60
2022-08-04T20:42:11.486Z,2.42
2022-08-04T20:44:55.880Z,2.60
2022-08-04T20:47:22.564Z,2.80
2022-08-04T20:49:49.179Z,2.65
2022-08-04T20:52:20.383Z,2.50
2022-08-04T20:54:48.691Z,2.65
2022-08-04T20:57:20.531Z,2.60
2022-08-04T21:00:02.543Z,2.40
2022-08-04T21:02:29.374Z,2.53
2022-08-04T21:04:55.882Z,2.67
2022-08-04T21:07:24.654Z,2.90
2022-08-04T21:09:51.768Z,2.60
2022-08-04T21:12:27.656Z,2.65
2022-08-04T21:14:57.157Z,2.80
2022-08-04T21:20:12.976Z,2.47
2022-08-04T21:22:40.534Z,2.78
2022-08-04T21:25:08.122Z,2.88
2022-08-04T21:27:43.373Z,2.77
2022-08-04T21:30:23.938Z,2.72
2022-08-04T21:32:50.820Z,2.70
2022-08-04T21:35:18.682Z,2.80
2022-08-04T21:40:38.529Z,3.08
2022-08-04T21:43:05.769Z,2.63
2022-08-04T21:45:37.829Z,2.92
2022-08-04T21:48:04.761Z,2.60
2022-08-04T21:50:31.295Z,2.90
2022-08-04T21:52:57.737Z,3.17
2022-08-04T21:55:25.821Z,3.00
2022-08-04T21:58:12.462Z,2.80
2022-08-04T22:00:40.575Z,3.13
2022-08-04T22:03:11.248Z,2.90
2022-08-04T22:05:55.157Z,3.00
2022-08-04T22:08:23.450Z,3.33
2022-08-04T22:10:50.442Z,3.25
2022-08-04T22:13:22.475Z,2.33
2022-08-04T22:16:04.482Z,2.35
2022-08-04T22:18:32.198Z,3.08
2022-08-04T22:21:04.012Z,2.92
2022-08-04T22:23:45.088Z,3.17
2022-08-04T22:26:26.598Z,3.30
2022-08-04T22:28:54.117Z,3.20
2022-08-04T22:31:23.768Z,3.15
2022-08-04T22:33:54.350Z,2.85
2022-08-04T22:36:22.102Z,3.05
2022-08-04T22:38:58.008Z,3.13
2022-08-04T22:41:34.202Z,3.38
2022-08-04T22:44:16.107Z,3.20
2022-08-04T22:46:42.772Z,3.15
2022-08-04T22:49:09.373Z,3.53
2022-08-04T22:51:36.009Z,3.58
2022-08-04T22:54:02.495Z,3.47
2022-08-04T22:56:39.179Z,3.17
2022-08-04T22:59:11.385Z,3.85
2022-08-04T23:02:00.145Z,3.17
2022-08-04T23:04:26.398Z,3.40
2022-08-04T23:06:54.353Z,3.50
2022-08-04T23:09:21.566Z,3.65
2022-08-04T23:11:53.950Z,3.58
2022-08-04T23:14:29.357Z,3.20
2022-08-04T23:16:55.806Z,3.35
2022-08-04T23:19:24.717Z,3.10
2022-08-04T23:22:01.596Z,3.30
2022-08-04T23:24:29.638Z,3.42
2022-08-04T23:26:57.074Z,3.30
2022-08-04T23:29:23.999Z,3.15
2022-08-04T23:31:59.358Z,3.45
2022-08-04T23:36:55.855Z,3.63
2022-08-04T23:39:25.837Z,3.60
2022-08-04T23:42:15.018Z,3.38
2022-08-04T23:44:48.455Z,3.17
2022-08-04T23:48:16.658Z,2.90
2022-08-04T23:50:01.338Z,3.17
2022-08-04T23:52:30.223Z,3.35
2022-08-04T23:55:00.797Z,2.92
2022-08-04T23:58:05.336Z,3.53
